sensor_id;sensor_type;location;lat;lon;timestamp;P1;durP1;ratioP1;P2;durP2;ratioP2
26413;SDS011;14108;53.668;10.288;2022-08-24T00:00:23;2.72;;;1.62;;
26413;SDS011;14108;53.668;10.288;2022-08-24T00:02:50;4.30;;;2.12;;
26413;SDS011;14108;53.668;10.288;2022-08-24T00:05:17;2.83;;;1.77;;
26413;SDS011;14108;53.668;10.288;2022-08-24T00:07:45;4.00;;;1.48;;
26413;SDS011;14108;53.668;10.288;2022-08-24T00:10:12;3.53;;;1.77;;
26413;SDS011;14108;53.668;10.288;2022-08-24T00:12:39;4.40;;;1.60;;
26413;SDS011;14108;53.668;10.288;2022-08-24T00:15:09;4.85;;;1.70;;
26413;SDS011;14108;53.668;10.288;2022-08-24T00:17:36;5.68;;;2.00;;
26413;SDS011;14108;53.668;10.288;2022-08-24T00:20:04;4.05;;;1.60;;
26413;SDS011;14108;53.668;10.288;2022-08-24T00:22:32;3.80;;;1.80;;
26413;SDS011;14108;53.668;10.288;2022-08-24T00:24:59;2.08;;;1.65;;
26413;SDS011;14108;53.668;10.288;2022-08-24T00:27:26;2.65;;;1.80;;
26413;SDS011;14108;53.668;10.288;2022-08-24T00:29:53;5.65;;;1.70;;
26413;SDS011;14108;53.668;10.288;2022-08-24T00:32:21;2.20;;;1.50;;
26413;SDS011;14108;53.668;10.288;2022-08-24T00:34:48;3.47;;;1.73;;
26413;SDS011;14108;53.668;10.288;2022-08-24T00:37:15;4.50;;;1.50;;
26413;SDS011;14108;53.668;10.288;2022-08-24T00:39:42;7.40;;;2.10;;
26413;SDS011;14108;53.668;10.288;2022-08-24T00:42:09;3.78;;;1.92;;
26413;SDS011;14108;53.668;10.288;2022-08-24T00:44:36;4.65;;;2.00;;
26413;SDS011;14108;53.668;10.288;2022-08-24T00:47:04;2.75;;;1.80;;
26413;SDS011;14108;53.668;10.288;2022-08-24T00:49:34;6.35;;;1.80;;
26413;SDS011;14108;53.668;10.288;2022-08-24T00:52:04;3.47;;;1.80;;
26413;SDS011;14108;53.668;10.288;2022-08-24T00:54:32;6.28;;;1.90;;
26413;SDS011;14108;53.668;10.288;2022-08-24T00:57:03;4.30;;;1.52;;
26413;SDS011;14108;53.668;10.288;2022-08-24T00:59:31;5.90;;;1.60;;
26413;SDS011;14108;53.668;10.288;2022-08-24T01:02:01;6.50;;;2.10;;
26413;SDS011;14108;53.668;10.288;2022-08-24T01:04:30;2.62;;;1.50;;
26413;SDS011;14108;53.668;10.288;2022-08-24T01:06:58;10.48;;;3.45;;
26413;SDS011;14108;53.668;10.288;2022-08-24T01:09:25;6.53;;;1.70;;
26413;SDS011;14108;53.668;10.288;2022-08-24T01:11:52;4.37;;;1.73;;
26413;SDS011;14108;53.668;10.288;2022-08-24T01:14:19;2.42;;;1.85;;
26413;SDS011;14108;53.668;10.288;2022-08-24T01:16:47;3.47;;;1.85;;
26413;SDS011;14108;53.668;10.288;2022-08-24T01:19:34;8.60;;;1.87;;
26413;SDS011;14108;53.668;10.288;2022-08-24T01:22:04;5.28;;;1.73;;
26413;SDS011;14108;53.668;10.288;2022-08-24T01:24:35;1.87;;;1.52;;
26413;SDS011;14108;53.668;10.288;2022-08-24T01:27:02;4.55;;;1.65;;
26413;SDS011;14108;53.668;10.288;2022-08-24T01:29:30;6.37;;;2.20;;
26413;SDS011;14108;53.668;10.288;2022-08-24T01:31:57;4.20;;;2.17;;
26413;SDS011;14108;53.668;10.288;2022-08-24T01:34:24;3.65;;;1.77;;
26413;SDS011;14108;53.668;10.288;2022-08-24T01:36:52;3.92;;;2.12;;
26413;SDS011;14108;53.668;10.288;2022-08-24T01:39:22;4.07;;;2.17;;
26413;SDS011;14108;53.668;10.288;2022-08-24T01:41:51;3.62;;;2.15;;
26413;SDS011;14108;53.668;10.288;2022-08-24T01:44:19;3.67;;;1.40;;
26413;SDS011;14108;53.668;10.288;2022-08-24T01:46:47;2.53;;;1.73;;
26413;SDS011;14108;53.668;10.288;2022-08-24T01:49:14;4.50;;;2.40;;
26413;SDS011;14108;53.668;10.288;2022-08-24T01:51:42;4.90;;;2.30;;
26413;SDS011;14108;53.668;10.288;2022-08-24T01:54:11;4.20;;;1.92;;
26413;SDS011;14108;53.668;10.288;2022-08-24T01:56:38;2.47;;;1.90;;
26413;SDS011;14108;53.668;10.288;2022-08-24T01:59:05;2.97;;;1.85;;
26413;SDS011;14108;53.668;10.288;2022-08-24T02:01:33;4.70;;;2.05;;
26413;SDS011;14108;53.668;10.288;2022-08-24T02:04:02;3.72;;;2.08;;
26413;SDS011;14108;53.668;10.288;2022-08-24T02:06:29;2.35;;;2.03;;
26413;SDS011;14108;53.668;10.288;2022-08-24T02:08:57;5.70;;;2.47;;
26413;SDS011;14108;53.668;10.288;2022-08-24T02:11:24;3.40;;;2.08;;
26413;SDS011;14108;53.668;10.288;2022-08-24T02:13:51;6.03;;;2.85;;
26413;SDS011;14108;53.668;10.288;2022-08-24T02:16:19;3.10;;;1.95;;
26413;SDS011;14108;53.668;10.288;2022-08-24T02:18:46;6.20;;;2.40;;
26413;SDS011;14108;53.668;10.288;2022-08-24T02:21:13;2.95;;;1.90;;
26413;SDS011;14108;53.668;10.288;2022-08-24T02:23:41;5.65;;;2.17;;
26413;SDS011;14108;53.668;10.288;2022-08-24T02:26:09;4.37;;;2.22;;
26413;SDS011;14108;53.668;10.288;2022-08-24T02:28:36;6.07;;;2.42;;
26413;SDS011;14108;53.668;10.288;2022-08-24T02:31:04;5.22;;;2.40;;
26413;SDS011;14108;53.668;10.288;2022-08-24T02:33:31;3.60;;;2.05;;
26413;SDS011;14108;53.668;10.288;2022-08-24T02:35:58;7.10;;;2.87;;
26413;SDS011;14108;53.668;10.288;2022-08-24T02:38:25;4.87;;;2.28;;
26413;SDS011;14108;53.668;10.288;2022-08-24T02:40:52;5.12;;;2.30;;
26413;SDS011;14108;53.668;10.288;2022-08-24T02:43:21;2.60;;;2.10;;
26413;SDS011;14108;53.668;10.288;2022-08-24T02:45:49;3.75;;;2.17;;
26413;SDS011;14108;53.668;10.288;2022-08-24T02:48:16;3.72;;;2.20;;
26413;SDS011;14108;53.668;10.288;2022-08-24T02:50:44;4.35;;;2.33;;
26413;SDS011;14108;53.668;10.288;2022-08-24T02:53:12;2.35;;;1.95;;
26413;SDS011;14108;53.668;10.288;2022-08-24T02:55:39;6.28;;;2.10;;
26413;SDS011;14108;53.668;10.288;2022-08-24T02:58:07;5.10;;;2.20;;
26413;SDS011;14108;53.668;10.288;2022-08-24T03:00:35;3.80;;;2.33;;
26413;SDS011;14108;53.668;10.288;2022-08-24T03:03:03;6.28;;;2.40;;
26413;SDS011;14108;53.668;10.288;2022-08-24T03:05:32;3.12;;;2.05;;
26413;SDS011;14108;53.668;10.288;2022-08-24T03:07:59;3.17;;;1.90;;
26413;SDS011;14108;53.668;10.288;2022-08-24T03:10:26;4.18;;;2.03;;
26413;SDS011;14108;53.668;10.288;2022-08-24T03:12:53;7.25;;;2.55;;
26413;SDS011;14108;53.668;10.288;2022-08-24T03:15:20;5.68;;;2.20;;
26413;SDS011;14108;53.668;10.288;2022-08-24T03:17:49;3.72;;;2.72;;
26413;SDS011;14108;53.668;10.288;2022-08-24T03:20:17;5.00;;;1.95;;
26413;SDS011;14108;53.668;10.288;2022-08-24T03:22:44;3.42;;;2.17;;
26413;SDS011;14108;53.668;10.288;2022-08-24T03:25:11;4.80;;;2.20;;
26413;SDS011;14108;53.668;10.288;2022-08-24T03:27:39;6.53;;;2.78;;
26413;SDS011;14108;53.668;10.288;2022-08-24T03:30:08;5.62;;;2.45;;
26413;SDS011;14108;53.668;10.288;2022-08-24T03:32:37;4.57;;;2.33;;
26413;SDS011;14108;53.668;10.288;2022-08-24T03:35:05;5.75;;;2.45;;
26413;SDS011;14108;53.668;10.288;2022-08-24T03:37:33;5.87;;;2.67;;
26413;SDS011;14108;53.668;10.288;2022-08-24T03:40:00;6.62;;;2.67;;
26413;SDS011;14108;53.668;10.288;2022-08-24T03:42:27;10.40;;;2.30;;
26413;SDS011;14108;53.668;10.288;2022-08-24T03:44:54;7.03;;;2.40;;
26413;SDS011;14108;53.668;10.288;2022-08-24T03:47:21;4.07;;;3.10;;
26413;SDS011;14108;53.668;10.288;2022-08-24T03:49:48;2.70;;;2.00;;
26413;SDS011;14108;53.668;10.288;2022-08-24T03:52:15;4.87;;;2.75;;
26413;SDS011;14108;53.668;10.288;2022-08-24T03:54:42;3.47;;;2.40;;
26413;SDS011;14108;53.668;10.288;2022-08-24T03:57:09;3.10;;;2.45;;
26413;SDS011;14108;53.668;10.288;2022-08-24T03:59:36;4.95;;;2.40;;
26413;SDS011;14108;53.668;10.288;2022-08-24T04:02:04;6.03;;;2.65;;
26413;SDS011;14108;53.668;10.288;2022-08-24T04:04:30;4.43;;;2.15;;
26413;SDS011;14108;53.668;10.288;2022-08-24T04:06:58;4.03;;;2.15;;
26413;SDS011;14108;53.668;10.288;2022-08-24T04:09:25;5.03;;;2.10;;
26413;SDS011;14108;53.668;10.288;2022-08-24T04:11:52;4.93;;;2.70;;
26413;SDS011;14108;53.668;10.288;2022-08-24T04:14:19;4.97;;;2.70;;
26413;SDS011;14108;53.668;10.288;2022-08-24T04:16:46;5.60;;;2.67;;
26413;SDS011;14108;53.668;10.288;2022-08-24T04:19:13;4.70;;;2.45;;
26413;SDS011;14108;53.668;10.288;2022-08-24T04:21:40;5.10;;;2.30;;
26413;SDS011;14108;53.668;10.288;2022-08-24T04:24:09;4.55;;;2.60;;
26413;SDS011;14108;53.668;10.288;2022-08-24T04:26:37;3.90;;;2.70;;
26413;SDS011;14108;53.668;10.288;2022-08-24T04:29:05;5.55;;;2.55;;
26413;SDS011;14108;53.668;10.288;2022-08-24T04:31:34;3.92;;;2.58;;
26413;SDS011;14108;53.668;10.288;2022-08-24T04:34:01;5.68;;;2.65;;
26413;SDS011;14108;53.668;10.288;2022-08-24T04:36:28;5.93;;;2.87;;
26413;SDS011;14108;53.668;10.288;2022-08-24T04:38:55;6.07;;;2.85;;
26413;SDS011;14108;53.668;10.288;2022-08-24T04:41:22;3.72;;;2.83;;
26413;SDS011;14108;53.668;10.288;2022-08-24T04:43:49;3.80;;;2.62;;
26413;SDS011;14108;53.668;10.288;2022-08-24T04:46:17;6.37;;;2.72;;
26413;SDS011;14108;53.668;10.288;2022-08-24T04:48:45;5.40;;;2.67;;
26413;SDS011;14108;53.668;10.288;2022-08-24T04:51:13;9.68;;;3.45;;
26413;SDS011;14108;53.668;10.288;2022-08-24T04:53:40;5.28;;;2.95;;
26413;SDS011;14108;53.668;10.288;2022-08-24T04:56:09;6.28;;;2.70;;
26413;SDS011;14108;53.668;10.288;2022-08-24T04:58:36;5.43;;;3.53;;
26413;SDS011;14108;53.668;10.288;2022-08-24T05:01:06;7.28;;;3.28;;
26413;SDS011;14108;53.668;10.288;2022-08-24T05:03:33;5.53;;;3.53;;
26413;SDS011;14108;53.668;10.288;2022-08-24T05:06:00;4.40;;;3.00;;
26413;SDS011;14108;53.668;10.288;2022-08-24T05:08:27;6.30;;;3.30;;
26413;SDS011;14108;53.668;10.288;2022-08-24T05:10:54;5.60;;;3.17;;
26413;SDS011;14108;53.668;10.288;2022-08-24T05:13:22;8.00;;;3.62;;
26413;SDS011;14108;53.668;10.288;2022-08-24T05:15:49;5.55;;;3.20;;
26413;SDS011;14108;53.668;10.288;2022-08-24T05:18:17;8.90;;;3.75;;
26413;SDS011;14108;53.668;10.288;2022-08-24T05:20:45;6.82;;;3.60;;
26413;SDS011;14108;53.668;10.288;2022-08-24T05:23:12;8.88;;;3.22;;
26413;SDS011;14108;53.668;10.288;2022-08-24T05:25:40;4.30;;;3.25;;
26413;SDS011;14108;53.668;10.288;2022-08-24T05:28:07;6.40;;;2.70;;
26413;SDS011;14108;53.668;10.288;2022-08-24T05:30:34;6.10;;;3.12;;
26413;SDS011;14108;53.668;10.288;2022-08-24T05:33:02;7.43;;;3.45;;
26413;SDS011;14108;53.668;10.288;2022-08-24T05:35:29;6.70;;;3.20;;
26413;SDS011;14108;53.668;10.288;2022-08-24T05:37:57;6.55;;;3.40;;
26413;SDS011;14108;53.668;10.288;2022-08-24T05:40:24;4.35;;;2.90;;
26413;SDS011;14108;53.668;10.288;2022-08-24T05:42:51;6.78;;;3.83;;
26413;SDS011;14108;53.668;10.288;2022-08-24T05:45:18;7.37;;;3.55;;
26413;SDS011;14108;53.668;10.288;2022-08-24T05:47:45;6.85;;;3.42;;
26413;SDS011;14108;53.668;10.288;2022-08-24T05:50:12;5.07;;;2.75;;
26413;SDS011;14108;53.668;10.288;2022-08-24T05:52:39;4.75;;;3.12;;
26413;SDS011;14108;53.668;10.288;2022-08-24T05:55:07;4.15;;;3.12;;
26413;SDS011;14108;53.668;10.288;2022-08-24T05:57:35;6.80;;;3.15;;
26413;SDS011;14108;53.668;10.288;2022-08-24T06:00:04;7.40;;;3.03;;
26413;SDS011;14108;53.668;10.288;2022-08-24T06:02:33;5.68;;;3.35;;
26413;SDS011;14108;53.668;10.288;2022-08-24T06:05:00;5.85;;;3.30;;
26413;SDS011;14108;53.668;10.288;2022-08-24T06:07:27;7.50;;;3.30;;
26413;SDS011;14108;53.668;10.288;2022-08-24T06:09:54;6.87;;;3.22;;
26413;SDS011;14108;53.668;10.288;2022-08-24T06:12:22;6.12;;;3.17;;
26413;SDS011;14108;53.668;10.288;2022-08-24T06:14:49;6.30;;;3.67;;
26413;SDS011;14108;53.668;10.288;2022-08-24T06:17:16;4.72;;;3.05;;
26413;SDS011;14108;53.668;10.288;2022-08-24T06:19:43;4.35;;;3.10;;
26413;SDS011;14108;53.668;10.288;2022-08-24T06:22:10;8.45;;;4.15;;
26413;SDS011;14108;53.668;10.288;2022-08-24T06:24:37;7.25;;;2.97;;
26413;SDS011;14108;53.668;10.288;2022-08-24T06:27:23;6.15;;;3.42;;
26413;SDS011;14108;53.668;10.288;2022-08-24T06:29:51;6.32;;;3.35;;
26413;SDS011;14108;53.668;10.288;2022-08-24T06:32:19;6.15;;;3.35;;
26413;SDS011;14108;53.668;10.288;2022-08-24T06:34:46;5.30;;;3.15;;
26413;SDS011;14108;53.668;10.288;2022-08-24T06:37:13;7.87;;;3.33;;
26413;SDS011;14108;53.668;10.288;2022-08-24T06:39:40;5.55;;;2.95;;
26413;SDS011;14108;53.668;10.288;2022-08-24T06:42:07;6.22;;;3.40;;
26413;SDS011;14108;53.668;10.288;2022-08-24T06:44:35;6.50;;;3.40;;
26413;SDS011;14108;53.668;10.288;2022-08-24T06:47:02;4.50;;;3.08;;
26413;SDS011;14108;53.668;10.288;2022-08-24T06:49:30;5.07;;;2.95;;
26413;SDS011;14108;53.668;10.288;2022-08-24T06:51:57;8.07;;;3.30;;
26413;SDS011;14108;53.668;10.288;2022-08-24T06:54:24;7.75;;;3.37;;
26413;SDS011;14108;53.668;10.288;2022-08-24T06:56:51;6.10;;;3.30;;
26413;SDS011;14108;53.668;10.288;2022-08-24T06:59:18;6.68;;;3.08;;
26413;SDS011;14108;53.668;10.288;2022-08-24T07:01:45;5.28;;;3.00;;
26413;SDS011;14108;53.668;10.288;2022-08-24T07:04:12;6.50;;;2.95;;
26413;SDS011;14108;53.668;10.288;2022-08-24T07:06:39;6.25;;;3.03;;
26413;SDS011;14108;53.668;10.288;2022-08-24T07:09:06;6.87;;;3.00;;
26413;SDS011;14108;53.668;10.288;2022-08-24T07:11:33;5.28;;;3.03;;
26413;SDS011;14108;53.668;10.288;2022-08-24T07:14:00;7.70;;;3.25;;
26413;SDS011;14108;53.668;10.288;2022-08-24T07:16:28;5.47;;;2.50;;
26413;SDS011;14108;53.668;10.288;2022-08-24T07:18:56;6.25;;;2.80;;
26413;SDS011;14108;53.668;10.288;2022-08-24T07:21:23;4.65;;;2.80;;
26413;SDS011;14108;53.668;10.288;2022-08-24T07:23:53;4.87;;;3.25;;
26413;SDS011;14108;53.668;10.288;2022-08-24T07:26:20;6.87;;;2.92;;
26413;SDS011;14108;53.668;10.288;2022-08-24T07:28:48;4.70;;;2.33;;
26413;SDS011;14108;53.668;10.288;2022-08-24T07:31:15;5.62;;;2.37;;
26413;SDS011;14108;53.668;10.288;2022-08-24T07:33:42;4.10;;;2.40;;
26413;SDS011;14108;53.668;10.288;2022-08-24T07:36:09;3.05;;;2.40;;
26413;SDS011;14108;53.668;10.288;2022-08-24T07:38:37;4.75;;;2.37;;
26413;SDS011;14108;53.668;10.288;2022-08-24T07:41:04;5.82;;;2.55;;
26413;SDS011;14108;53.668;10.288;2022-08-24T07:43:31;5.93;;;2.55;;
26413;SDS011;14108;53.668;10.288;2022-08-24T07:45:58;6.00;;;2.28;;
26413;SDS011;14108;53.668;10.288;2022-08-24T07:48:26;5.72;;;2.30;;
26413;SDS011;14108;53.668;10.288;2022-08-24T07:50:53;4.82;;;2.17;;
26413;SDS011;14108;53.668;10.288;2022-08-24T07:53:20;5.93;;;2.80;;
26413;SDS011;14108;53.668;10.288;2022-08-24T07:55:51;5.37;;;2.37;;
26413;SDS011;14108;53.668;10.288;2022-08-24T07:58:19;4.93;;;2.30;;
26413;SDS011;14108;53.668;10.288;2022-08-24T08:00:46;2.67;;;2.03;;
26413;SDS011;14108;53.668;10.288;2022-08-24T08:03:13;4.22;;;2.20;;
26413;SDS011;14108;53.668;10.288;2022-08-24T08:05:40;5.82;;;2.37;;
26413;SDS011;14108;53.668;10.288;2022-08-24T08:08:07;4.62;;;2.15;;
26413;SDS011;14108;53.668;10.288;2022-08-24T08:10:34;4.55;;;2.45;;
26413;SDS011;14108;53.668;10.288;2022-08-24T08:13:02;4.28;;;2.55;;
26413;SDS011;14108;53.668;10.288;2022-08-24T08:15:29;4.75;;;2.33;;
26413;SDS011;14108;53.668;10.288;2022-08-24T08:17:56;6.80;;;2.25;;
26413;SDS011;14108;53.668;10.288;2022-08-24T08:20:23;6.10;;;2.40;;
26413;SDS011;14108;53.668;10.288;2022-08-24T08:22:51;4.75;;;2.70;;
26413;SDS011;14108;53.668;10.288;2022-08-24T08:25:36;5.40;;;2.62;;
26413;SDS011;14108;53.668;10.288;2022-08-24T08:28:03;4.82;;;2.40;;
26413;SDS011;14108;53.668;10.288;2022-08-24T08:30:31;7.45;;;2.35;;
26413;SDS011;14108;53.668;10.288;2022-08-24T08:32:58;6.45;;;2.45;;
26413;SDS011;14108;53.668;10.288;2022-08-24T08:35:25;5.10;;;2.40;;
26413;SDS011;14108;53.668;10.288;2022-08-24T08:37:52;6.25;;;2.37;;
26413;SDS011;14108;53.668;10.288;2022-08-24T08:40:30;6.40;;;2.70;;
26413;SDS011;14108;53.668;10.288;2022-08-24T08:43:01;6.20;;;2.62;;
26413;SDS011;14108;53.668;10.288;2022-08-24T08:45:32;6.50;;;2.67;;
26413;SDS011;14108;53.668;10.288;2022-08-24T08:48:09;4.35;;;2.17;;
26413;SDS011;14108;53.668;10.288;2022-08-24T08:50:43;3.70;;;2.30;;
26413;SDS011;14108;53.668;10.288;2022-08-24T08:56:08;5.68;;;2.40;;
26413;SDS011;14108;53.668;10.288;2022-08-24T08:58:45;5.80;;;2.45;;
26413;SDS011;14108;53.668;10.288;2022-08-24T09:01:17;6.28;;;2.17;;
26413;SDS011;14108;53.668;10.288;2022-08-24T09:04:03;3.17;;;2.10;;
26413;SDS011;14108;53.668;10.288;2022-08-24T09:06:37;11.68;;;2.87;;
26413;SDS011;14108;53.668;10.288;2022-08-24T09:09:09;7.18;;;2.95;;
26413;SDS011;14108;53.668;10.288;2022-08-24T09:11:42;4.15;;;2.35;;
26413;SDS011;14108;53.668;10.288;2022-08-24T09:17:07;3.83;;;2.30;;
26413;SDS011;14108;53.668;10.288;2022-08-24T09:19:41;4.15;;;2.58;;
26413;SDS011;14108;53.668;10.288;2022-08-24T09:22:13;5.57;;;2.37;;
26413;SDS011;14108;53.668;10.288;2022-08-24T09:24:49;4.70;;;2.47;;
26413;SDS011;14108;53.668;10.288;2022-08-24T09:27:21;5.03;;;2.60;;
26413;SDS011;14108;53.668;10.288;2022-08-24T09:29:56;4.93;;;2.22;;
26413;SDS011;14108;53.668;10.288;2022-08-24T09:32:34;5.18;;;2.67;;
26413;SDS011;14108;53.668;10.288;2022-08-24T09:35:04;4.40;;;2.22;;
26413;SDS011;14108;53.668;10.288;2022-08-24T09:37:36;4.32;;;2.58;;
26413;SDS011;14108;53.668;10.288;2022-08-24T09:40:15;4.47;;;2.65;;
26413;SDS011;14108;53.668;10.288;2022-08-24T09:42:48;4.95;;;2.60;;
26413;SDS011;14108;53.668;10.288;2022-08-24T09:45:32;3.72;;;2.47;;
26413;SDS011;14108;53.668;10.288;2022-08-24T09:48:07;4.65;;;2.37;;
26413;SDS011;14108;53.668;10.288;2022-08-24T09:50:43;4.50;;;2.05;;
26413;SDS011;14108;53.668;10.288;2022-08-24T09:56:09;4.45;;;2.50;;
26413;SDS011;14108;53.668;10.288;2022-08-24T09:58:45;3.87;;;2.10;;
26413;SDS011;14108;53.668;10.288;2022-08-24T10:01:17;4.80;;;2.00;;
26413;SDS011;14108;53.668;10.288;2022-08-24T10:03:52;3.00;;;2.00;;
26413;SDS011;14108;53.668;10.288;2022-08-24T10:06:24;3.97;;;2.47;;
26413;SDS011;14108;53.668;10.288;2022-08-24T10:09:06;6.15;;;2.10;;
26413;SDS011;14108;53.668;10.288;2022-08-24T10:11:37;6.00;;;2.58;;
26413;SDS011;14108;53.668;10.288;2022-08-24T10:14:14;4.18;;;1.85;;
26413;SDS011;14108;53.668;10.288;2022-08-24T10:16:43;4.00;;;2.30;;
26413;SDS011;14108;53.668;10.288;2022-08-24T10:19:17;5.00;;;2.35;;
26413;SDS011;14108;53.668;10.288;2022-08-24T10:21:51;5.47;;;2.17;;
26413;SDS011;14108;53.668;10.288;2022-08-24T10:24:25;3.17;;;2.25;;
26413;SDS011;14108;53.668;10.288;2022-08-24T10:27:05;4.18;;;2.55;;
26413;SDS011;14108;53.668;10.288;2022-08-24T10:29:44;5.07;;;2.00;;
26413;SDS011;14108;53.668;10.288;2022-08-24T10:32:21;4.47;;;2.20;;
26413;SDS011;14108;53.668;10.288;2022-08-24T10:34:56;2.78;;;1.87;;
26413;SDS011;14108;53.668;10.288;2022-08-24T10:37:38;2.90;;;1.95;;
26413;SDS011;14108;53.668;10.288;2022-08-24T10:40:11;3.50;;;1.73;;
26413;SDS011;14108;53.668;10.288;2022-08-24T10:43:02;4.07;;;2.30;;
26413;SDS011;14108;53.668;10.288;2022-08-24T10:48:58;4.15;;;1.83;;
26413;SDS011;14108;53.668;10.288;2022-08-24T10:51:31;4.68;;;1.85;;
26413;SDS011;14108;53.668;10.288;2022-08-24T10:54:01;2.78;;;1.70;;
26413;SDS011;14108;53.668;10.288;2022-08-24T10:56:30;4.07;;;2.03;;
26413;SDS011;14108;53.668;10.288;2022-08-24T10:59:03;6.15;;;1.90;;
26413;SDS011;14108;53.668;10.288;2022-08-24T11:01:34;3.70;;;1.70;;
26413;SDS011;14108;53.668;10.288;2022-08-24T11:04:03;5.20;;;2.10;;
26413;SDS011;14108;53.668;10.288;2022-08-24T11:06:31;3.92;;;2.00;;
26413;SDS011;14108;53.668;10.288;2022-08-24T11:09:01;4.22;;;1.75;;
26413;SDS011;14108;53.668;10.288;2022-08-24T11:11:30;2.10;;;1.50;;
26413;SDS011;14108;53.668;10.288;2022-08-24T11:13:58;3.85;;;1.92;;
26413;SDS011;14108;53.668;10.288;2022-08-24T11:16:27;2.80;;;1.55;;
26413;SDS011;14108;53.668;10.288;2022-08-24T11:18:56;3.45;;;1.80;;
26413;SDS011;14108;53.668;10.288;2022-08-24T11:24:25;4.90;;;1.90;;
26413;SDS011;14108;53.668;10.288;2022-08-24T11:26:55;6.00;;;2.20;;
26413;SDS011;14108;53.668;10.288;2022-08-24T11:29:25;3.42;;;1.77;;
26413;SDS011;14108;53.668;10.288;2022-08-24T11:31:52;3.28;;;1.87;;
26413;SDS011;14108;53.668;10.288;2022-08-24T11:34:28;4.95;;;2.00;;
26413;SDS011;14108;53.668;10.288;2022-08-24T11:36:56;3.55;;;1.50;;
26413;SDS011;14108;53.668;10.288;2022-08-24T11:39:24;5.93;;;1.75;;
26413;SDS011;14108;53.668;10.288;2022-08-24T11:41:53;3.80;;;1.60;;
26413;SDS011;14108;53.668;10.288;2022-08-24T11:44:27;2.70;;;1.73;;
26413;SDS011;14108;53.668;10.288;2022-08-24T11:46:57;7.32;;;1.67;;
26413;SDS011;14108;53.668;10.288;2022-08-24T11:49:26;3.40;;;1.80;;
26413;SDS011;14108;53.668;10.288;2022-08-24T11:51:55;3.80;;;2.10;;
26413;SDS011;14108;53.668;10.288;2022-08-24T11:54:28;2.67;;;1.77;;
26413;SDS011;14108;53.668;10.288;2022-08-24T11:57:03;5.45;;;2.00;;
26413;SDS011;14108;53.668;10.288;2022-08-24T11:59:35;2.60;;;1.42;;
26413;SDS011;14108;53.668;10.288;2022-08-24T12:02:05;3.53;;;1.90;;
26413;SDS011;14108;53.668;10.288;2022-08-24T12:04:37;2.45;;;1.62;;
26413;SDS011;14108;53.668;10.288;2022-08-24T12:07:12;4.55;;;2.15;;
26413;SDS011;14108;53.668;10.288;2022-08-24T12:09:45;2.17;;;1.40;;
26413;SDS011;14108;53.668;10.288;2022-08-24T12:12:16;3.97;;;1.80;;
26413;SDS011;14108;53.668;10.288;2022-08-24T12:14:47;4.18;;;1.87;;
26413;SDS011;14108;53.668;10.288;2022-08-24T12:17:17;3.70;;;1.98;;
26413;SDS011;14108;53.668;10.288;2022-08-24T12:19:47;2.47;;;1.60;;
26413;SDS011;14108;53.668;10.288;2022-08-24T12:22:15;2.85;;;1.70;;
26413;SDS011;14108;53.668;10.288;2022-08-24T12:24:44;2.80;;;1.77;;
26413;SDS011;14108;53.668;10.288;2022-08-24T12:27:13;2.70;;;1.80;;
26413;SDS011;14108;53.668;10.288;2022-08-24T12:29:43;3.55;;;1.83;;
26413;SDS011;14108;53.668;10.288;2022-08-24T12:32:12;3.17;;;1.80;;
26413;SDS011;14108;53.668;10.288;2022-08-24T12:34:45;4.05;;;1.70;;
26413;SDS011;14108;53.668;10.288;2022-08-24T12:37:14;3.87;;;1.85;;
26413;SDS011;14108;53.668;10.288;2022-08-24T12:39:44;4.97;;;1.87;;
26413;SDS011;14108;53.668;10.288;2022-08-24T12:42:14;4.22;;;1.67;;
26413;SDS011;14108;53.668;10.288;2022-08-24T12:44:44;4.25;;;2.20;;
26413;SDS011;14108;53.668;10.288;2022-08-24T12:47:17;3.67;;;1.83;;
26413;SDS011;14108;53.668;10.288;2022-08-24T12:49:45;2.72;;;1.55;;
26413;SDS011;14108;53.668;10.288;2022-08-24T12:52:22;2.85;;;1.87;;
26413;SDS011;14108;53.668;10.288;2022-08-24T12:54:58;4.30;;;1.77;;
26413;SDS011;14108;53.668;10.288;2022-08-24T12:57:44;2.45;;;1.60;;
26413;SDS011;14108;53.668;10.288;2022-08-24T13:00:15;4.28;;;1.90;;
26413;SDS011;14108;53.668;10.288;2022-08-24T13:02:43;5.47;;;1.92;;
26413;SDS011;14108;53.668;10.288;2022-08-24T13:05:19;5.47;;;2.03;;
26413;SDS011;14108;53.668;10.288;2022-08-24T13:07:47;4.22;;;1.40;;
26413;SDS011;14108;53.668;10.288;2022-08-24T13:15:49;4.62;;;1.95;;
26413;SDS011;14108;53.668;10.288;2022-08-24T13:18:44;4.35;;;1.70;;
26413;SDS011;14108;53.668;10.288;2022-08-24T13:21:14;2.92;;;1.70;;
26413;SDS011;14108;53.668;10.288;2022-08-24T13:23:42;3.97;;;1.90;;
26413;SDS011;14108;53.668;10.288;2022-08-24T13:26:21;4.07;;;1.70;;
26413;SDS011;14108;53.668;10.288;2022-08-24T13:28:48;3.72;;;1.83;;
26413;SDS011;14108;53.668;10.288;2022-08-24T13:31:28;2.55;;;1.80;;
26413;SDS011;14108;53.668;10.288;2022-08-24T13:33:58;3.83;;;2.08;;
26413;SDS011;14108;53.668;10.288;2022-08-24T13:39:22;3.40;;;1.85;;
26413;SDS011;14108;53.668;10.288;2022-08-24T13:44:35;7.37;;;2.03;;
26413;SDS011;14108;53.668;10.288;2022-08-24T13:47:08;3.45;;;1.80;;
26413;SDS011;14108;53.668;10.288;2022-08-24T13:49:46;6.87;;;2.12;;
26413;SDS011;14108;53.668;10.288;2022-08-24T13:52:18;4.10;;;1.92;;
26413;SDS011;14108;53.668;10.288;2022-08-24T13:54:51;1.80;;;1.50;;
26413;SDS011;14108;53.668;10.288;2022-08-24T13:59:53;3.45;;;1.83;;
26413;SDS011;14108;53.668;10.288;2022-08-24T14:02:24;3.53;;;1.67;;
26413;SDS011;14108;53.668;10.288;2022-08-24T14:04:58;3.08;;;2.03;;
26413;SDS011;14108;53.668;10.288;2022-08-24T14:07:28;4.47;;;1.60;;
26413;SDS011;14108;53.668;10.288;2022-08-24T14:09:59;3.20;;;1.90;;
26413;SDS011;14108;53.668;10.288;2022-08-24T14:12:35;2.22;;;1.58;;
26413;SDS011;14108;53.668;10.288;2022-08-24T14:17:46;2.90;;;1.73;;
26413;SDS011;14108;53.668;10.288;2022-08-24T14:23:07;2.62;;;1.83;;
26413;SDS011;14108;53.668;10.288;2022-08-24T14:25:39;3.85;;;1.90;;
26413;SDS011;14108;53.668;10.288;2022-08-24T14:28:32;5.78;;;2.15;;
26413;SDS011;14108;53.668;10.288;2022-08-24T14:31:20;3.70;;;2.05;;
26413;SDS011;14108;53.668;10.288;2022-08-24T14:36:42;3.75;;;1.83;;
26413;SDS011;14108;53.668;10.288;2022-08-24T14:39:17;1.50;;;1.40;;
26413;SDS011;14108;53.668;10.288;2022-08-24T14:41:51;1.90;;;1.27;;
26413;SDS011;14108;53.668;10.288;2022-08-24T14:47:13;5.18;;;1.60;;
26413;SDS011;14108;53.668;10.288;2022-08-24T14:49:44;3.62;;;1.50;;
26413;SDS011;14108;53.668;10.288;2022-08-24T14:52:19;6.93;;;1.55;;
26413;SDS011;14108;53.668;10.288;2022-08-24T14:54:59;2.30;;;1.83;;
26413;SDS011;14108;53.668;10.288;2022-08-24T15:00:19;2.33;;;1.50;;
26413;SDS011;14108;53.668;10.288;2022-08-24T15:05:37;3.65;;;1.70;;
26413;SDS011;14108;53.668;10.288;2022-08-24T15:08:07;3.42;;;1.50;;
26413;SDS011;14108;53.668;10.288;2022-08-24T15:10:35;4.90;;;1.80;;
26413;SDS011;14108;53.668;10.288;2022-08-24T15:13:05;6.57;;;1.77;;
26413;SDS011;14108;53.668;10.288;2022-08-24T15:15:34;6.10;;;1.35;;
26413;SDS011;14108;53.668;10.288;2022-08-24T15:18:05;6.10;;;1.83;;
26413;SDS011;14108;53.668;10.288;2022-08-24T15:23:35;2.70;;;1.50;;
26413;SDS011;14108;53.668;10.288;2022-08-24T15:26:07;2.33;;;1.37;;
26413;SDS011;14108;53.668;10.288;2022-08-24T15:28:36;5.70;;;1.37;;
26413;SDS011;14108;53.668;10.288;2022-08-24T15:31:05;5.30;;;1.80;;
26413;SDS011;14108;53.668;10.288;2022-08-24T15:33:33;13.18;;;1.87;;
26413;SDS011;14108;53.668;10.288;2022-08-24T15:36:05;7.45;;;2.10;;